Time;durP1;ratioP1;P1;durP2;ratioP2;P2;SDS_P1;SDS_P2;PMS_P1;PMS_P2;Temp;Humidity;BMP_temperature;BMP_pressure;BME280_temperature;BME280_humidity;BME280_pressure;Samples;Min_cycle;Max_cycle;Signal;HPM_P1;HPM_P2
2022/07/11 00:00:17;;;;;;;4.67;2.30;;;16.30;99.90;;;;;;5037442;28;20061;-91
2022/07/11 00:02:42;;;;;;;13.87;2.50;;;16.30;99.90;;;;;;5020482;28;20611;-90
2022/07/11 00:05:09;;;;;;;9.73;2.93;;;16.30;99.90;;;;;;5018456;28;20054;-91
2022/07/11 00:07:36;;;;;;;8.40;2.83;;;16.30;99.90;;;;;;5019198;28;20096;-90
2022/07/11 00:10:02;;;;;;;7.40;3.10;;;16.20;99.90;;;;;;5036798;28;20095;-90
2022/07/11 00:12:28;;;;;;;6.53;2.60;;;16.30;99.90;;;;;;5019780;28;20040;-91
2022/07/11 00:14:56;;;;;;;8.20;2.80;;;16.30;99.90;;;;;;5020359;28;20041;-90
2022/07/11 00:17:23;;;;;;;6.00;2.47;;;16.20;99.90;;;;;;5017632;28;20083;-91
2022/07/11 00:19:49;;;;;;;8.80;2.60;;;16.20;99.90;;;;;;5032323;28;20045;-90
2022/07/11 00:22:15;;;;;;;10.33;2.83;;;16.30;99.90;;;;;;5025264;28;20053;-90
2022/07/11 00:24:41;;;;;;;6.77;2.80;;;16.20;99.90;;;;;;5025324;28;20075;-90
2022/07/11 00:27:07;;;;;;;7.77;1.90;;;16.20;99.90;;;;;;5046582;28;20061;-91
2022/07/11 00:29:32;;;;;;;7.37;2.20;;;16.20;99.90;;;;;;5033601;28;20045;-90
2022/07/11 00:32:00;;;;;;;5.77;2.17;;;16.20;99.90;;;;;;5050706;28;20048;-90
2022/07/11 00:34:26;;;;;;;7.37;2.23;;;16.10;99.90;;;;;;5024754;28;20084;-90
2022/07/11 00:36:52;;;;;;;7.53;2.80;;;16.10;99.90;;;;;;5021404;28;20045;-90
2022/07/11 00:39:17;;;;;;;5.87;2.63;;;16.30;99.90;;;;;;5021306;28;20083;-91
2022/07/11 00:41:43;;;;;;;7.53;3.20;;;16.10;99.90;;;;;;5038000;28;20083;-90
2022/07/11 00:44:09;;;;;;;8.53;3.10;;;16.10;99.90;;;;;;5021192;28;20136;-90
2022/07/11 00:46:35;;;;;;;8.57;2.50;;;16.30;99.90;;;;;;5037325;28;20401;-90
2022/07/11 00:49:03;;;;;;;10.47;3.37;;;16.20;99.90;;;;;;5015728;28;20045;-90
2022/07/11 00:51:30;;;;;;;8.60;3.07;;;16.10;99.90;;;;;;5017506;28;20505;-91
2022/07/11 00:53:58;;;;;;;9.37;3.97;;;16.40;99.90;;;;;;5025661;28;20037;-90
2022/07/11 00:56:26;;;;;;;11.40;4.23;;;16.10;99.90;;;;;;5016164;28;20038;-90
2022/07/11 00:58:54;;;;;;;9.17;3.93;;;16.10;99.90;;;;;;5006964;28;20041;-91
2022/07/11 01:01:20;;;;;;;7.33;3.70;;;16.20;99.90;;;;;;5036471;28;20080;-91
2022/07/11 01:03:46;;;;;;;8.17;3.70;;;16.20;99.90;;;;;;5020441;28;20523;-91
2022/07/11 01:06:14;;;;;;;8.60;4.30;;;16.20;99.90;;;;;;5020042;28;20041;-90
2022/07/11 01:08:41;;;;;;;7.50;3.80;;;16.20;99.90;;;;;;5033305;28;20144;-90
2022/07/11 01:11:12;;;;;;;5.37;3.33;;;16.00;99.90;;;;;;5017335;28;20505;-90
2022/07/11 01:13:38;;;;;;;6.97;3.60;;;16.00;99.90;;;;;;5017066;28;20045;-89
2022/07/11 01:16:15;;;;;;;6.70;3.50;;;16.00;99.90;;;;;;5015818;28;20539;-89
2022/07/11 01:18:45;;;;;;;6.43;3.13;;;16.00;99.90;;;;;;5013847;28;20128;-90
2022/07/11 01:21:21;;;;;;;8.30;3.30;;;16.00;99.90;;;;;;5003318;28;20045;-90
2022/07/11 01:23:49;;;;;;;4.73;3.07;;;16.10;99.90;;;;;;5019528;28;20520;-90
2022/07/11 01:26:16;;;;;;;4.90;2.60;;;16.10;99.90;;;;;;5019071;28;20053;-90
2022/07/11 01:28:42;;;;;;;7.63;3.10;;;16.10;99.90;;;;;;5018860;28;20045;-89
2022/07/11 01:31:07;;;;;;;4.77;2.30;;;16.00;99.90;;;;;;5019878;28;20051;-90
2022/07/11 01:33:34;;;;;;;4.03;2.47;;;16.00;99.90;;;;;;5036297;28;20099;-90
2022/07/11 01:36:01;;;;;;;6.23;2.57;;;16.00;99.90;;;;;;5019707;28;20045;-90
2022/07/11 01:38:28;;;;;;;3.23;2.50;;;16.00;99.90;;;;;;5017408;28;20128;-90
2022/07/11 01:40:56;;;;;;;5.27;3.10;;;16.00;99.90;;;;;;5019922;28;20132;-90
2022/07/11 01:43:22;;;;;;;5.93;3.20;;;16.00;99.90;;;;;;5035467;28;20091;-89
2022/07/11 01:45:50;;;;;;;3.73;2.70;;;16.20;99.90;;;;;;5034413;28;20174;-88
2022/07/11 01:48:16;;;;;;;3.50;2.63;;;16.00;99.90;;;;;;5018208;28;20102;-89
2022/07/11 01:50:42;;;;;;;5.60;3.10;;;16.00;99.90;;;;;;5008888;28;20041;-88
2022/07/11 01:53:08;;;;;;;6.10;2.80;;;16.00;99.90;;;;;;5034795;28;20045;-89
2022/07/11 01:55:33;;;;;;;6.17;3.40;;;16.00;99.90;;;;;;5018168;28;20041;-89
2022/07/11 01:58:00;;;;;;;3.87;2.70;;;16.00;99.90;;;;;;5015005;28;20046;-89
2022/07/11 02:00:26;;;;;;;4.23;3.00;;;15.90;99.90;;;;;;5032055;28;20507;-89
2022/07/11 02:02:52;;;;;;;8.30;3.27;;;16.00;99.90;;;;;;5029101;28;20073;-89
2022/07/11 02:05:18;;;;;;;6.30;4.10;;;16.10;99.90;;;;;;5032870;28;20080;-89
2022/07/11 02:10:29;;;;;;;;;;;16.00;99.90;;;;;;5026418;28;20045;-89
2022/07/11 02:12:55;;;;;;;6.27;3.97;;;16.00;99.90;;;;;;5013601;28;19916;-88
2022/07/11 02:15:22;;;;;;;7.83;4.63;;;15.90;99.90;;;;;;5016655;28;20041;-89
2022/07/11 02:17:48;;;;;;;7.73;5.33;;;15.90;99.90;;;;;;5017677;28;20114;-90
2022/07/11 02:20:13;;;;;;;10.60;5.40;;;15.90;99.90;;;;;;5018533;28;20493;-90
2022/07/11 02:22:39;;;;;;;10.30;5.00;;;15.90;99.90;;;;;;5018998;28;20099;-90
2022/07/11 02:25:06;;;;;;;8.50;5.03;;;16.00;99.90;;;;;;5018313;28;20045;-91
2022/07/11 02:27:32;;;;;;;11.53;5.30;;;15.90;99.90;;;;;;5014334;28;20484;-91
2022/07/11 02:29:57;;;;;;;6.20;5.00;;;15.90;99.90;;;;;;5035111;28;20044;-90
2022/07/11 02:32:25;;;;;;;11.17;4.80;;;15.90;99.90;;;;;;5018741;28;20049;-91
2022/07/11 02:34:50;;;;;;;7.63;4.87;;;15.90;99.90;;;;;;5017465;28;20496;-90
2022/07/11 02:37:16;;;;;;;7.23;5.23;;;15.90;99.90;;;;;;5034561;28;20051;-91
2022/07/11 02:39:42;;;;;;;10.67;5.23;;;15.90;99.90;;;;;;5034920;28;20041;-90
2022/07/11 02:42:08;;;;;;;11.10;6.33;;;15.90;99.90;;;;;;5018609;28;20063;-90
2022/07/11 02:44:33;;;;;;;11.27;5.50;;;15.90;99.90;;;;;;5035047;28;20045;-91
2022/07/11 02:46:59;;;;;;;6.87;4.90;;;15.90;99.90;;;;;;5018767;28;20216;-91
2022/07/11 02:49:26;;;;;;;8.97;6.00;;;15.90;99.90;;;;;;5018269;28;20492;-91
2022/07/11 02:51:52;;;;;;;12.80;6.20;;;15.90;99.90;;;;;;5014617;28;20049;-90
2022/07/11 02:54:18;;;;;;;9.10;5.30;;;15.90;99.90;;;;;;5018371;28;20053;-90
2022/07/11 02:56:44;;;;;;;7.40;6.13;;;15.90;99.90;;;;;;5017589;28;20131;-92
2022/07/11 02:59:10;;;;;;;13.83;6.00;;;15.90;99.90;;;;;;5015828;28;20049;-91
2022/07/11 03:01:36;;;;;;;9.33;5.97;;;15.90;99.90;;;;;;5020932;28;20041;-92
2022/07/11 03:04:02;;;;;;;11.23;6.40;;;15.80;99.90;;;;;;5035082;28;20041;-92
2022/07/11 03:06:29;;;;;;;10.47;6.53;;;15.80;99.90;;;;;;5018792;28;20563;-92
2022/07/11 03:09:10;;;;;;;12.93;6.80;;;16.00;99.90;;;;;;5018276;28;20095;-92
2022/07/11 03:11:36;;;;;;;9.57;6.23;;;16.00;99.90;;;;;;5015401;28;20128;-92
2022/07/11 03:14:02;;;;;;;10.10;5.80;;;15.80;99.90;;;;;;5013372;28;20084;-92
2022/07/11 03:16:28;;;;;;;11.27;6.90;;;16.00;99.90;;;;;;5015097;28;20512;-92
2022/07/11 03:18:54;;;;;;;10.13;5.93;;;15.80;99.90;;;;;;5012978;28;20055;-93
2022/07/11 03:21:20;;;;;;;8.73;5.90;;;15.80;99.90;;;;;;5047234;28;20238;-92
2022/07/11 03:23:49;;;;;;;10.03;6.07;;;16.00;99.90;;;;;;5039467;28;20048;-91
2022/07/11 03:26:16;;;;;;;9.30;6.00;;;15.80;99.90;;;;;;5022349;28;20103;-91
2022/07/11 03:28:41;;;;;;;10.30;6.07;;;15.90;99.90;;;;;;5022042;28;20131;-91
2022/07/11 03:31:07;;;;;;;8.90;6.33;;;16.00;99.90;;;;;;5022681;28;20553;-91
2022/07/11 03:33:33;;;;;;;11.30;6.10;;;16.00;99.90;;;;;;5022409;28;20048;-92
2022/07/11 03:35:59;;;;;;;10.13;5.80;;;15.80;99.90;;;;;;5038715;28;20061;-92
2022/07/11 03:38:25;;;;;;;9.97;5.10;;;16.00;99.90;;;;;;5022160;28;20044;-92
2022/07/11 03:40:53;;;;;;;9.70;5.67;;;15.80;99.90;;;;;;5031230;28;20432;-92
2022/07/11 03:43:19;;;;;;;7.20;5.57;;;15.90;99.90;;;;;;5019253;28;20054;-93
2022/07/11 03:45:45;;;;;;;7.70;5.37;;;15.90;99.90;;;;;;5019169;28;20080;-92
2022/07/11 03:48:11;;;;;;;11.03;5.87;;;15.80;99.90;;;;;;5005585;28;20041;-92
2022/07/11 03:50:37;;;;;;;12.40;6.03;;;15.80;99.90;;;;;;5022293;28;20090;-92
2022/07/11 03:53:03;;;;;;;8.67;5.80;;;16.00;99.90;;;;;;5034234;28;20525;-92
2022/07/11 03:55:31;;;;;;;7.27;5.20;;;15.90;99.90;;;;;;5020565;28;20047;-91
2022/07/11 03:57:58;;;;;;;7.73;5.03;;;15.90;99.90;;;;;;5020677;28;20041;-92
2022/07/11 04:00:24;;;;;;;11.20;5.10;;;16.00;99.90;;;;;;5038144;28;20496;-93
2022/07/11 04:02:52;;;;;;;10.10;5.30;;;15.90;99.90;;;;;;5020840;28;20044;-93
2022/07/11 04:05:21;;;;;;;7.40;4.53;;;15.90;99.90;;;;;;5022246;28;20063;-92
2022/07/11 04:07:51;;;;;;;9.43;4.80;;;15.90;99.90;;;;;;5023100;28;20044;-92
2022/07/11 04:10:21;;;;;;;8.23;4.40;;;15.90;99.90;;;;;;5038884;28;20139;-92
2022/07/11 04:16:25;;;;;;;10.10;5.03;;;16.00;99.90;;;;;;5056086;28;20095;-92
2022/07/11 04:18:51;;;;;;;7.27;5.43;;;16.00;99.90;;;;;;5043171;28;20052;-90
2022/07/11 04:21:23;;;;;;;7.23;5.03;;;16.20;99.90;;;;;;5021580;28;20045;-92
2022/07/11 04:23:49;;;;;;;9.20;5.37;;;15.90;99.90;;;;;;5035356;28;20128;-92
2022/07/11 04:26:16;;;;;;;9.83;5.67;;;16.10;99.90;;;;;;5008454;28;20163;-92
2022/07/11 04:28:51;;;;;;;9.17;5.67;;;16.00;99.90;;;;;;5019467;28;20049;-93
2022/07/11 04:31:17;;;;;;;12.47;5.43;;;16.00;99.90;;;;;;5029043;28;20041;-92
2022/07/11 05:18:18;;;;;;;5.57;2.47;;;16.40;99.90;;;;;;5091021;28;20169;-90
2022/07/11 05:47:22;;;;;;;3.80;2.07;;;16.80;99.90;;;;;;4896198;29;20089;-90
2022/07/11 08:55:25;;;;;;;1.50;0.50;;;19.70;99.90;;;;;;5163576;22;20039;-80
2022/07/11 08:57:51;;;;;;;0.83;0.40;;;19.60;99.90;;;;;;5059862;28;20060;-79
2022/07/11 09:00:17;;;;;;;0.87;0.40;;;19.70;99.90;;;;;;5030945;28;20040;-79
2022/07/11 09:02:44;;;;;;;0.97;0.50;;;19.70;99.90;;;;;;5041272;28;20528;-79
2022/07/11 09:05:10;;;;;;;0.53;0.30;;;19.70;99.90;;;;;;5055071;28;20040;-79
2022/07/11 09:07:43;;;;;;;1.23;0.50;;;19.80;99.90;;;;;;5080919;28;20399;-79
2022/07/11 09:10:09;;;;;;;0.67;0.30;;;19.90;99.90;;;;;;5080262;28;20098;-83
2022/07/11 09:12:36;;;;;;;0.70;0.33;;;19.90;99.90;;;;;;5052154;28;20045;-79
2022/07/11 09:15:02;;;;;;;0.97;0.40;;;19.90;99.90;;;;;;5062461;28;20507;-79
2022/07/11 09:17:30;;;;;;;0.53;0.40;;;19.80;99.90;;;;;;5061356;28;20040;-79
2022/07/11 09:19:56;;;;;;;2.03;0.50;;;19.80;99.90;;;;;;5083233;28;20039;-80
2022/07/11 09:27:56;;;;;;;1.73;0.53;;;20.40;99.90;;;;;;5068645;28;20400;-80
2022/07/11 09:30:25;;;;;;;0.50;0.40;;;20.50;99.90;;;;;;5079395;28;20052;-79
2022/07/11 09:32:59;;;;;;;0.77;0.37;;;20.60;99.90;;;;;;5085407;28;20454;-78
2022/07/11 09:35:27;;;;;;;2.33;0.50;;;20.60;99.90;;;;;;5081409;28;20040;-79
2022/07/11 09:37:53;;;;;;;1.17;0.50;;;20.50;99.90;;;;;;5071620;28;20044;-78
2022/07/11 09:40:21;;;;;;;0.40;0.40;;;20.30;99.90;;;;;;5054438;28;20040;-80
2022/07/11 09:42:52;;;;;;;1.47;0.50;;;20.20;99.90;;;;;;5079866;28;20529;-80
2022/07/11 09:45:21;;;;;;;0.50;0.47;;;20.00;99.90;;;;;;5063793;28;20051;-79
2022/07/11 09:47:48;;;;;;;1.13;0.50;;;19.90;99.90;;;;;;5063063;28;20055;-79
2022/07/11 09:50:18;;;;;;;0.40;0.30;;;19.90;99.90;;;;;;5064121;28;20469;-80
2022/07/11 09:52:58;;;;;;;1.37;0.50;;;19.90;99.90;;;;;;5064359;28;20036;-79
2022/07/11 09:55:25;;;;;;;1.93;0.53;;;20.00;99.90;;;;;;5048932;28;20082;-79
2022/07/11 09:57:51;;;;;;;1.30;0.50;;;20.20;99.90;;;;;;5082409;28;20570;-80
2022/07/11 10:00:16;;;;;;;0.95;0.40;;;20.30;99.90;;;;;;5062130;28;20123;-79
2022/07/11 10:02:44;;;;;;;0.60;0.30;;;20.50;99.90;;;;;;5065088;28;20037;-79
2022/07/11 10:05:11;;;;;;;0.80;0.40;;;20.70;99.90;;;;;;5040124;28;20040;-79
2022/07/11 10:07:36;;;;;;;0.80;0.60;;;20.80;99.90;;;;;;5053564;28;20041;-80
2022/07/11 10:10:04;;;;;;;0.43;0.40;;;20.90;99.90;;;;;;5069721;28;20445;-79
2022/07/11 10:12:32;;;;;;;2.40;0.60;;;20.90;99.90;;;;;;5084841;28;20046;-79
2022/07/11 10:15:00;;;;;;;0.80;0.30;;;20.70;99.90;;;;;;5067187;28;20063;-79
2022/07/11 10:17:34;;;;;;;1.30;0.40;;;20.60;99.90;;;;;;5057290;28;20052;-80
2022/07/11 10:20:07;;;;;;;0.67;0.40;;;20.40;99.90;;;;;;5063041;28;20076;-79
2022/07/11 10:22:41;;;;;;;0.20;0.20;;;20.20;99.90;;;;;;5055384;28;20561;-79
2022/07/11 10:25:19;;;;;;;0.87;0.40;;;20.10;99.90;;;;;;5056502;28;20047;-80
2022/07/11 10:27:59;;;;;;;0.40;0.40;;;19.90;99.90;;;;;;5039230;28;20461;-79
2022/07/11 10:30:46;;;;;;;1.03;0.30;;;19.90;99.90;;;;;;5056627;28;20036;-80
2022/07/11 10:33:12;;;;;;;0.93;0.50;;;19.80;99.90;;;;;;5057053;28;20036;-80
2022/07/11 10:35:42;;;;;;;0.63;0.47;;;19.80;99.90;;;;;;5055879;28;20047;-80
2022/07/11 10:38:08;;;;;;;1.33;0.50;;;19.90;99.90;;;;;;5045175;28;20066;-79
2022/07/11 10:40:43;;;;;;;0.50;0.40;;;20.00;99.90;;;;;;5086595;28;20040;-80
2022/07/11 10:43:09;;;;;;;1.03;0.40;;;20.00;99.90;;;;;;5072047;28;20071;-80
2022/07/11 10:45:50;;;;;;;2.17;0.50;;;19.90;99.90;;;;;;5058171;28;20116;-79
2022/07/11 10:48:15;;;;;;;1.63;0.30;;;20.00;99.90;;;;;;5041266;28;20220;-80
2022/07/11 10:50:44;;;;;;;0.90;0.50;;;19.90;99.90;;;;;;5073385;28;20121;-80
2022/07/11 10:53:11;;;;;;;0.70;0.30;;;20.00;99.90;;;;;;5056080;28;20083;-80
2022/07/11 10:55:44;;;;;;;0.53;0.40;;;20.00;99.90;;;;;;5091481;28;20051;-80
2022/07/11 10:58:20;;;;;;;1.83;0.50;;;20.00;99.90;;;;;;5054785;28;20040;-80
2022/07/11 11:00:48;;;;;;;0.57;0.40;;;20.10;99.90;;;;;;5054303;28;20068;-80
2022/07/11 11:03:17;;;;;;;0.67;0.40;;;20.20;99.90;;;;;;5057930;28;20050;-80
2022/07/11 11:05:47;;;;;;;0.93;0.50;;;20.30;99.90;;;;;;5068017;28;20047;-80
2022/07/11 11:08:47;;;;;;;1.00;0.40;;;20.30;99.90;;;;;;5059547;28;20515;-80
2022/07/11 11:11:37;;;;;;;1.40;0.30;;;20.30;99.90;;;;;;5051483;28;20055;-80
2022/07/11 11:14:26;;;;;;;0.87;0.40;;;20.40;99.90;;;;;;5080235;28;20135;-81
2022/07/11 11:16:52;;;;;;;0.37;0.30;;;20.40;99.90;;;;;;5038094;28;20083;-80
2022/07/11 11:19:53;;;;;;;0.87;0.30;;;20.50;99.90;;;;;;5083169;28;20427;-80
2022/07/11 11:22:22;;;;;;;0.80;0.40;;;20.60;99.90;;;;;;5068032;28;20123;-80
2022/07/11 11:24:50;;;;;;;1.03;0.50;;;20.50;99.90;;;;;;5077221;28;20063;-80
2022/07/11 11:27:19;;;;;;;1.50;0.50;;;20.40;99.90;;;;;;5054855;28;20037;-81
2022/07/11 11:29:45;;;;;;;0.43;0.40;;;20.40;99.90;;;;;;5065223;28;20513;-80
2022/07/11 11:32:11;;;;;;;1.50;0.30;;;20.30;99.90;;;;;;5067923;28;20079;-81
2022/07/11 11:34:39;;;;;;;2.10;0.40;;;20.30;99.90;;;;;;5071903;28;20529;-81
2022/07/11 11:37:06;;;;;;;0.30;0.20;;;20.30;99.90;;;;;;5049474;28;20392;-81
2022/07/11 11:39:35;;;;;;;0.73;0.33;;;20.30;99.90;;;;;;5075847;28;20043;-81
2022/07/11 11:42:05;;;;;;;0.63;0.33;;;20.30;99.90;;;;;;5076238;28;20041;-80
2022/07/11 11:44:31;;;;;;;1.00;0.50;;;20.40;99.90;;;;;;5075632;28;20077;-80
2022/07/11 11:46:57;;;;;;;1.27;0.50;;;20.50;99.90;;;;;;5061365;28;20036;-80
2022/07/11 11:49:23;;;;;;;1.40;0.50;;;20.70;99.90;;;;;;5088627;28;20047;-81
2022/07/11 11:51:49;;;;;;;1.37;0.40;;;20.80;99.90;;;;;;5069361;28;20075;-80
2022/07/11 11:54:21;;;;;;;0.30;0.30;;;20.80;99.90;;;;;;5073051;28;20076;-81
2022/07/11 11:56:49;;;;;;;2.03;0.60;;;20.80;99.90;;;;;;5058563;28;20134;-81
2022/07/11 11:59:15;;;;;;;0.73;0.30;;;20.80;99.90;;;;;;5061646;28;20521;-79
2022/07/11 12:01:43;;;;;;;0.68;0.40;;;20.80;99.90;;;;;;5057415;28;20044;-81
2022/07/11 12:04:11;;;;;;;1.63;0.60;;;20.70;99.90;;;;;;5067972;28;20050;-81
2022/07/11 12:06:40;;;;;;;1.20;0.40;;;20.70;99.90;;;;;;5059166;28;20123;-80
2022/07/11 12:09:09;;;;;;;1.80;0.50;;;20.70;99.90;;;;;;5068730;28;20037;-80
2022/07/11 12:11:35;;;;;;;2.78;0.60;;;20.80;99.90;;;;;;5067408;28;20492;-81
2022/07/11 12:14:05;;;;;;;1.48;0.50;;;20.80;99.90;;;;;;5065081;28;20036;-81
2022/07/11 12:16:41;;;;;;;0.30;0.30;;;20.80;99.90;;;;;;5073987;28;20076;-81
2022/07/11 12:19:08;;;;;;;1.48;0.50;;;20.80;99.90;;;;;;5075939;28;20134;-81
2022/07/11 12:21:35;;;;;;;1.13;0.40;;;20.80;99.90;;;;;;5090627;28;20490;-80
2022/07/11 12:24:02;;;;;;;0.63;0.40;;;20.90;99.90;;;;;;5091104;28;20048;-81
2022/07/11 12:26:29;;;;;;;2.53;0.45;;;21.00;99.90;;;;;;5061019;28;20192;-80
2022/07/11 12:29:10;;;;;;;1.88;0.35;;;21.20;99.90;;;;;;5048221;28;20039;-81
2022/07/11 12:31:44;;;;;;;2.72;0.40;;;21.30;99.90;;;;;;5055736;28;20102;-81
2022/07/11 12:34:11;;;;;;;1.20;0.40;;;21.30;99.90;;;;;;5082556;28;20094;-80
2022/07/11 12:36:37;;;;;;;0.30;0.30;;;21.30;99.90;;;;;;5057415;28;20469;-80
2022/07/11 12:39:04;;;;;;;0.65;0.50;;;21.40;99.90;;;;;;5053651;28;20391;-81
2022/07/11 12:41:30;;;;;;;1.00;0.40;;;21.50;99.90;;;;;;5088407;28;20286;-80
2022/07/11 12:46:42;;;;;;;2.40;0.57;;;21.70;99.90;;;;;;5068068;28;20305;-81
2022/07/11 12:49:11;;;;;;;1.00;0.50;;;21.80;99.90;;;;;;5071445;28;20051;-81
2022/07/11 12:51:40;;;;;;;12.25;3.85;;;21.80;99.90;;;;;;5055329;28;20229;-81
2022/07/11 12:54:08;;;;;;;2.90;0.70;;;21.90;99.90;;;;;;5038703;28;20048;-81
2022/07/11 12:56:35;;;;;;;8.55;3.15;;;21.80;99.90;;;;;;5055652;28;20048;-81
2022/07/11 12:59:02;;;;;;;11.23;3.40;;;21.70;99.90;;;;;;5054290;28;20162;-81
2022/07/11 13:01:28;;;;;;;5.35;2.05;;;21.70;99.90;;;;;;5054251;28;20045;-81
2022/07/11 13:03:57;;;;;;;11.27;3.25;;;21.50;99.90;;;;;;5043249;28;20062;-80
2022/07/11 13:09:08;;;;;;;8.35;2.85;;;21.50;99.90;;;;;;5083491;28;20033;-80
2022/07/11 13:11:34;;;;;;;3.45;0.70;;;21.70;99.90;;;;;;5074947;28;20051;-80
2022/07/11 13:14:00;;;;;;;3.17;0.85;;;21.70;99.90;;;;;;5077498;28;20392;-81
2022/07/11 13:16:27;;;;;;;11.63;2.00;;;21.70;99.90;;;;;;5064573;28;20055;-80
2022/07/11 13:18:53;;;;;;;1.70;0.40;;;21.70;99.90;;;;;;5055633;28;20054;-80
2022/07/11 13:21:21;;;;;;;2.70;0.77;;;21.50;99.90;;;;;;5067533;28;20044;-81
2022/07/11 13:23:47;;;;;;;1.30;0.30;;;21.50;99.90;;;;;;5054286;28;20048;-81
2022/07/11 13:26:13;;;;;;;5.40;1.42;;;21.40;99.90;;;;;;5059978;28;20624;-82
2022/07/11 13:28:39;;;;;;;0.88;0.38;;;21.50;99.90;;;;;;5054251;28;20032;-81
2022/07/11 13:31:06;;;;;;;1.27;0.40;;;21.70;99.90;;;;;;5065607;28;20466;-81
2022/07/11 13:33:32;;;;;;;2.40;0.40;;;21.80;99.90;;;;;;5063784;28;20040;-81
2022/07/11 13:35:58;;;;;;;0.47;0.25;;;21.90;99.90;;;;;;5058563;28;20051;-80
2022/07/11 13:38:25;;;;;;;0.50;0.35;;;21.90;99.90;;;;;;5062268;28;20039;-80
2022/07/11 13:40:50;;;;;;;1.40;0.40;;;21.90;99.90;;;;;;5061573;28;20748;-81
2022/07/11 13:43:16;;;;;;;0.50;0.40;;;21.90;99.90;;;;;;5049221;28;20055;-81
2022/07/11 13:45:44;;;;;;;1.70;0.38;;;22.00;99.90;;;;;;5068337;28;20134;-80
2022/07/11 13:48:10;;;;;;;2.05;0.43;;;22.00;99.90;;;;;;5047832;28;20566;-79
2022/07/11 13:50:36;;;;;;;0.40;0.40;;;22.10;99.90;;;;;;5064619;28;20446;-78
2022/07/11 13:53:02;;;;;;;1.17;0.50;;;22.00;99.90;;;;;;5082976;28;20051;-84
2022/07/11 13:55:29;;;;;;;0.90;0.50;;;21.90;99.90;;;;;;5086513;28;20052;-81
2022/07/11 13:57:56;;;;;;;2.05;0.52;;;21.90;99.90;;;;;;5045913;28;20108;-81
2022/07/11 14:00:23;;;;;;;0.90;0.40;;;21.90;99.90;;;;;;5065782;28;20686;-82
2022/07/11 14:02:49;;;;;;;3.05;0.60;;;21.90;99.90;;;;;;5082659;28;20055;-81
2022/07/11 14:05:15;;;;;;;0.70;0.45;;;21.90;99.90;;;;;;5064251;28;20773;-82
2022/07/11 14:07:41;;;;;;;1.15;0.50;;;22.00;99.90;;;;;;5062988;28;20047;-82
2022/07/11 14:10:08;;;;;;;2.33;0.60;;;21.90;99.90;;;;;;5078658;28;20044;-79
2022/07/11 14:12:36;;;;;;;2.88;0.60;;;21.90;99.90;;;;;;5047184;28;20040;-80
2022/07/11 14:15:02;;;;;;;1.92;0.40;;;21.80;99.90;;;;;;5065557;28;20044;-81
2022/07/11 14:17:28;;;;;;;0.98;0.50;;;21.70;99.90;;;;;;5043570;28;20048;-82
2022/07/11 14:19:55;;;;;;;1.60;0.47;;;21.80;99.90;;;;;;5057103;28;20411;-83
2022/07/11 14:22:21;;;;;;;2.55;0.60;;;22.20;99.90;;;;;;5057775;28;20495;-81
2022/07/11 14:24:47;;;;;;;0.88;0.38;;;22.40;99.90;;;;;;5037506;28;20530;-82
2022/07/11 14:27:14;;;;;;;1.15;0.40;;;22.60;99.90;;;;;;5051092;28;20067;-80
2022/07/11 14:29:41;;;;;;;0.73;0.60;;;22.50;99.90;;;;;;5089221;28;20059;-81
2022/07/11 14:32:08;;;;;;;0.93;0.50;;;22.40;99.90;;;;;;5070349;28;20054;-81
2022/07/11 14:34:33;;;;;;;1.02;0.50;;;22.20;99.90;;;;;;5084863;28;20068;-81
2022/07/11 14:36:59;;;;;;;3.03;1.17;;;22.00;99.90;;;;;;5075487;28;20079;-81
2022/07/11 14:39:25;;;;;;;6.13;1.50;;;21.90;99.90;;;;;;5072737;28;20054;-81
2022/07/11 14:41:51;;;;;;;4.88;1.48;;;21.70;99.90;;;;;;5056549;28;20073;-82
2022/07/11 14:44:17;;;;;;;2.35;0.60;;;21.60;99.90;;;;;;5043431;28;20093;-81
2022/07/11 14:46:44;;;;;;;1.63;0.50;;;21.50;99.90;;;;;;5065020;28;20040;-81
2022/07/11 14:49:10;;;;;;;3.00;0.57;;;21.50;99.90;;;;;;5048491;28;20036;-81
2022/07/11 14:51:36;;;;;;;5.97;1.63;;;21.60;99.90;;;;;;5076142;28;20124;-79
2022/07/11 14:54:02;;;;;;;2.08;0.52;;;21.70;99.90;;;;;;5073332;28;20118;-79
2022/07/11 14:56:28;;;;;;;1.25;0.50;;;21.60;99.90;;;;;;5060336;28;20040;-81
2022/07/11 14:58:54;;;;;;;1.05;0.55;;;21.60;99.90;;;;;;5044220;28;20131;-79
2022/07/11 15:01:20;;;;;;;1.35;0.60;;;21.70;99.90;;;;;;5068204;28;20139;-80
2022/07/11 15:03:47;;;;;;;1.45;0.40;;;21.70;99.90;;;;;;5082171;28;20037;-80
2022/07/11 15:06:15;;;;;;;1.20;0.52;;;21.70;99.90;;;;;;5062786;28;20067;-80
2022/07/11 15:14:12;;;;;;;1.52;0.40;;;21.70;99.90;;;;;;5078867;28;20051;-78
2022/07/11 15:16:38;;;;;;;0.73;0.32;;;21.80;99.90;;;;;;5081846;28;20074;-81
2022/07/11 15:19:06;;;;;;;2.15;0.50;;;21.80;99.90;;;;;;5056599;28;20124;-82
2022/07/11 15:21:33;;;;;;;1.23;0.50;;;21.70;99.90;;;;;;5066802;28;20150;-81
2022/07/11 15:24:00;;;;;;;3.63;0.80;;;21.60;99.90;;;;;;5064543;28;20036;-81
2022/07/11 15:26:26;;;;;;;0.63;0.30;;;21.60;99.90;;;;;;5064387;28;20082;-82
2022/07/11 15:28:53;;;;;;;3.38;0.50;;;21.50;99.90;;;;;;5047972;28;20059;-82
2022/07/11 15:31:19;;;;;;;2.92;0.35;;;21.40;99.90;;;;;;5083159;28;20419;-81
2022/07/11 15:33:47;;;;;;;2.03;0.40;;;21.30;99.90;;;;;;5088579;28;20051;-80
2022/07/11 15:36:16;;;;;;;0.50;0.50;;;21.30;99.90;;;;;;5071981;28;20542;-82
2022/07/11 15:38:44;;;;;;;2.47;0.50;;;21.30;99.90;;;;;;5063047;28;20090;-80
2022/07/11 15:41:10;;;;;;;1.50;0.60;;;21.40;99.90;;;;;;5068902;28;20032;-77
2022/07/11 15:43:36;;;;;;;0.75;0.40;;;21.50;99.90;;;;;;5082190;28;20032;-79
2022/07/11 15:46:02;;;;;;;0.65;0.38;;;21.60;99.90;;;;;;5057951;28;20170;-80
2022/07/11 15:48:29;;;;;;;1.00;0.52;;;21.70;99.90;;;;;;5078151;28;20327;-82
2022/07/11 15:50:54;;;;;;;3.10;1.15;;;21.70;99.90;;;;;;5073527;28;20453;-81
2022/07/11 15:53:22;;;;;;;4.25;1.42;;;21.70;99.90;;;;;;5065807;28;20296;-78
2022/07/11 15:55:48;;;;;;;3.33;0.90;;;21.70;99.90;;;;;;5072858;28;20503;-80
2022/07/11 15:58:14;;;;;;;1.38;0.60;;;21.80;99.90;;;;;;5077202;28;20054;-80
2022/07/11 16:00:39;;;;;;;0.50;0.50;;;21.90;99.90;;;;;;5058994;28;20139;-82
2022/07/11 16:03:05;;;;;;;23.50;7.82;;;22.00;99.90;;;;;;5074901;28;20040;-79
2022/07/11 16:05:31;;;;;;;100.72;29.10;;;21.90;99.90;;;;;;5082975;28;20109;-78
2022/07/11 16:07:58;;;;;;;10.27;3.63;;;21.80;99.90;;;;;;5059216;28;20499;-80
2022/07/11 16:10:25;;;;;;;2.88;1.10;;;21.70;99.90;;;;;;5060322;28;20052;-82
2022/07/11 16:12:51;;;;;;;0.90;0.60;;;21.60;99.90;;;;;;5069724;28;20044;-79
2022/07/11 16:15:17;;;;;;;0.68;0.50;;;21.50;99.90;;;;;;5068337;28;20111;-80
2022/07/11 16:17:43;;;;;;;4.88;1.00;;;21.40;99.90;;;;;;5072488;28;20044;-82
2022/07/11 16:20:09;;;;;;;1.38;0.80;;;21.30;99.90;;;;;;5072036;28;20044;-79
2022/07/11 16:22:40;;;;;;;2.25;0.77;;;21.20;99.90;;;;;;5052145;28;20101;-79
2022/07/11 16:25:06;;;;;;;1.25;0.60;;;21.20;99.90;;;;;;5069476;28;20036;-80
2022/07/11 16:27:33;;;;;;;1.30;0.70;;;21.20;99.90;;;;;;5049342;28;20058;-79
2022/07/11 16:29:59;;;;;;;0.52;0.40;;;21.10;99.90;;;;;;5088839;28;20046;-80
2022/07/11 16:32:25;;;;;;;1.13;0.50;;;21.00;99.90;;;;;;5067773;28;20044;-81
2022/07/11 16:34:51;;;;;;;1.48;0.77;;;21.10;99.90;;;;;;5064361;28;20040;-80
2022/07/11 16:37:17;;;;;;;2.90;0.80;;;21.10;99.90;;;;;;5052071;28;20150;-79
2022/07/11 16:45:12;;;;;;;1.30;0.80;;;21.20;99.90;;;;;;5066943;28;20047;-81
2022/07/11 16:47:38;;;;;;;0.75;0.70;;;21.10;99.90;;;;;;5057638;28;20044;-80
2022/07/11 16:50:05;;;;;;;2.90;0.60;;;21.10;99.90;;;;;;5061825;28;20058;-80
2022/07/11 16:52:31;;;;;;;2.60;0.70;;;21.00;99.90;;;;;;5077192;28;20079;-81
2022/07/11 16:54:57;;;;;;;1.38;0.68;;;21.10;99.90;;;;;;5088246;28;20067;-80
2022/07/11 16:57:23;;;;;;;1.88;0.70;;;21.10;99.90;;;;;;5061911;28;20067;-80
2022/07/11 16:59:49;;;;;;;2.63;0.90;;;21.10;99.90;;;;;;5065871;28;20043;-83
2022/07/11 17:02:16;;;;;;;1.80;0.80;;;21.10;99.90;;;;;;5079513;28;20120;-80
2022/07/11 17:04:41;;;;;;;3.70;0.80;;;21.10;99.90;;;;;;5068948;28;20067;-80
2022/07/11 17:07:07;;;;;;;0.50;0.50;;;21.10;99.90;;;;;;5079931;28;21425;-80
2022/07/11 17:09:34;;;;;;;0.68;0.60;;;21.00;99.90;;;;;;5067470;28;20096;-80
2022/07/11 17:11:59;;;;;;;0.65;0.60;;;21.00;99.90;;;;;;5076551;28;20068;-81
2022/07/11 17:14:25;;;;;;;0.98;0.70;;;21.00;99.90;;;;;;5057996;28;20075;-79
2022/07/11 17:16:51;;;;;;;2.17;0.60;;;21.00;99.90;;;;;;5071466;28;20051;-81
2022/07/11 17:19:19;;;;;;;3.67;0.77;;;21.00;99.90;;;;;;5073481;28;20491;-81
2022/07/11 17:21:44;;;;;;;2.72;0.65;;;21.00;99.90;;;;;;5058964;28;20097;-81
2022/07/11 17:24:10;;;;;;;0.68;0.60;;;21.00;99.90;;;;;;5065579;28;20460;-80
2022/07/11 17:26:36;;;;;;;3.15;0.95;;;21.00;99.90;;;;;;5050987;28;20490;-80
2022/07/11 17:29:02;;;;;;;2.08;0.68;;;20.90;99.90;;;;;;5073037;28;20495;-81
2022/07/11 17:31:28;;;;;;;1.83;0.77;;;20.90;99.90;;;;;;5073678;28;20067;-80